createdAt,value
2018-03-25T00:01:45.774Z,75.01
2018-03-25T00:04:13.180Z,74.98
2018-03-25T00:06:40.605Z,75.00
2018-03-25T00:09:08.307Z,74.98
2018-03-25T00:11:35.707Z,74.74
2018-03-25T00:14:03.306Z,74.90
2018-03-25T00:16:30.717Z,75.09
2018-03-25T00:18:58.114Z,74.96
2018-03-25T00:21:25.525Z,74.94
2018-03-25T00:23:52.938Z,75.16
2018-03-25T00:26:20.342Z,75.35
2018-03-25T00:28:47.746Z,75.20
2018-03-25T00:31:15.165Z,75.28
2018-03-25T00:33:42.584Z,75.28
2018-03-25T00:36:09.989Z,75.32
2018-03-25T00:38:37.410Z,75.47
2018-03-25T00:41:04.799Z,75.34
2018-03-25T00:43:32.207Z,75.29
2018-03-25T00:45:59.619Z,75.45
2018-03-25T00:48:27.089Z,75.99
2018-03-25T00:50:54.446Z,77.04
2018-03-25T00:53:21.865Z,76.80
2018-03-25T00:55:49.272Z,76.31
2018-03-25T00:58:16.678Z,76.19
2018-03-25T01:00:44.215Z,76.08
2018-03-25T01:03:11.609Z,76.26
2018-03-25T01:05:39.023Z,76.25
2018-03-25T01:08:06.433Z,76.20
2018-03-25T01:10:33.834Z,76.28
2018-03-25T01:13:01.265Z,75.91
2018-03-25T01:18:29.438Z,76.35
2018-03-25T01:20:56.847Z,76.69
2018-03-25T01:23:24.262Z,76.54
2018-03-25T01:25:51.666Z,76.76
2018-03-25T01:28:19.247Z,77.26
2018-03-25T01:30:46.658Z,77.83
2018-03-25T01:33:14.058Z,77.47
2018-03-25T01:35:41.761Z,77.58
2018-03-25T01:38:09.166Z,78.08
2018-03-25T01:40:36.561Z,77.54
2018-03-25T01:43:04.083Z,77.06
2018-03-25T01:45:31.490Z,76.89
2018-03-25T01:47:58.897Z,76.77
2018-03-25T01:50:26.314Z,77.97
2018-03-25T01:52:53.732Z,77.25
2018-03-25T01:55:21.161Z,77.73
2018-03-25T01:57:48.570Z,77.73
2018-03-25T02:00:15.986Z,77.78
2018-03-25T02:02:43.395Z,77.24
2018-03-25T02:05:10.801Z,77.26
2018-03-25T02:07:38.222Z,77.19
2018-03-25T02:10:05.623Z,77.23
2018-03-25T02:12:33.034Z,77.43
2018-03-25T02:15:00.462Z,77.25
2018-03-25T02:17:27.865Z,77.48
2018-03-25T02:19:55.290Z,76.89
2018-03-25T02:22:22.694Z,76.91
2018-03-25T02:24:50.118Z,77.12
2018-03-25T02:27:17.522Z,76.98
2018-03-25T02:29:44.936Z,77.14
2018-03-25T02:32:12.353Z,77.14
2018-03-25T02:34:39.906Z,77.37
2018-03-25T02:37:07.432Z,77.18
2018-03-25T02:39:34.852Z,77.08
2018-03-25T02:42:02.290Z,77.47
2018-03-25T02:44:29.695Z,77.57
2018-03-25T02:46:57.104Z,78.11
2018-03-25T02:49:24.509Z,78.06
2018-03-25T02:51:51.927Z,77.75
2018-03-25T02:54:19.329Z,77.75
2018-03-25T02:56:46.760Z,77.83
2018-03-25T02:59:14.286Z,78.60
2018-03-25T03:01:41.699Z,79.27
2018-03-25T03:04:09.101Z,80.30
2018-03-25T03:06:36.522Z,80.43
2018-03-25T03:09:03.919Z,79.64
2018-03-25T03:11:31.325Z,79.33
2018-03-25T03:13:58.746Z,79.37
2018-03-25T03:16:26.153Z,79.62
2018-03-25T03:18:53.565Z,78.65
2018-03-25T03:21:20.975Z,79.02
2018-03-25T03:23:48.377Z,79.53
2018-03-25T03:26:15.796Z,79.38
2018-03-25T03:28:43.202Z,79.34
2018-03-25T03:31:10.597Z,79.64
2018-03-25T03:33:38.009Z,79.04
2018-03-25T03:36:05.421Z,79.29
2018-03-25T03:38:32.833Z,79.14
2018-03-25T03:41:00.233Z,78.87
2018-03-25T03:43:27.652Z,79.37
2018-03-25T03:45:55.067Z,79.06
2018-03-25T03:48:22.485Z,79.76
2018-03-25T03:50:50.167Z,79.35
2018-03-25T03:53:17.628Z,78.82
2018-03-25T03:55:45.034Z,78.72
2018-03-25T03:58:12.459Z,78.74
2018-03-25T04:00:39.857Z,78.65
2018-03-25T04:03:07.277Z,78.80
2018-03-25T04:05:34.673Z,78.72
2018-03-25T04:08:02.104Z,78.73
2018-03-25T04:10:29.507Z,78.81
2018-03-25T04:12:56.909Z,78.92
2018-03-25T04:15:24.321Z,78.80
2018-03-25T04:17:51.721Z,78.75
2018-03-25T04:20:19.145Z,78.67
2018-03-25T04:22:46.548Z,78.56
2018-03-25T04:25:13.953Z,79.43
2018-03-25T04:27:41.382Z,79.15
2018-03-25T04:30:08.785Z,79.31
2018-03-25T04:32:36.214Z,78.93
2018-03-25T04:35:03.619Z,79.90
2018-03-25T04:37:31.039Z,79.72
2018-03-25T04:39:58.465Z,79.53
2018-03-25T04:42:25.888Z,79.03
2018-03-25T04:44:53.317Z,78.87
2018-03-25T04:47:20.832Z,78.77
2018-03-25T04:49:48.219Z,79.03
2018-03-25T04:52:15.617Z,79.26
2018-03-25T04:54:43.081Z,79.50
2018-03-25T04:57:10.501Z,78.98
2018-03-25T04:59:37.915Z,78.67
2018-03-25T05:02:05.362Z,78.69
2018-03-25T05:04:32.769Z,78.43
2018-03-25T05:07:00.394Z,78.56
2018-03-25T05:09:27.802Z,78.63
2018-03-25T05:11:55.506Z,78.68
2018-03-25T05:14:23.033Z,78.79
2018-03-25T05:16:50.490Z,78.54
2018-03-25T05:19:18.019Z,78.55
2018-03-25T05:21:45.474Z,78.48
2018-03-25T05:24:12.873Z,78.92
2018-03-25T05:26:40.282Z,78.97
2018-03-25T05:29:07.706Z,78.74
2018-03-25T05:31:35.122Z,78.63
2018-03-25T05:34:02.526Z,78.38
2018-03-25T05:36:30.037Z,78.63
2018-03-25T05:38:57.555Z,78.13
2018-03-25T05:41:24.910Z,78.00
2018-03-25T05:43:52.455Z,77.87
2018-03-25T05:46:19.894Z,77.53
2018-03-25T05:48:47.320Z,77.34
2018-03-25T05:51:14.738Z,77.24
2018-03-25T05:53:42.185Z,77.12
2018-03-25T05:56:09.601Z,77.07
2018-03-25T05:58:37.001Z,76.96
2018-03-25T06:01:04.408Z,76.58
2018-03-25T06:03:32.090Z,76.35
2018-03-25T06:05:59.482Z,76.22
2018-03-25T06:08:26.885Z,75.97
2018-03-25T06:10:54.301Z,75.69
2018-03-25T06:13:21.722Z,75.55
2018-03-25T06:15:49.140Z,75.36
2018-03-25T06:18:16.545Z,75.14
2018-03-25T06:20:44.002Z,75.00
2018-03-25T06:23:11.689Z,74.84
2018-03-25T06:25:39.049Z,74.69
2018-03-25T06:28:06.442Z,74.63
2018-03-25T06:30:33.956Z,74.53
2018-03-25T06:33:01.372Z,74.51
2018-03-25T06:35:28.757Z,74.37
2018-03-25T06:37:56.377Z,74.20
2018-03-25T06:40:23.777Z,73.94
2018-03-25T06:42:51.181Z,73.82
2018-03-25T06:45:18.597Z,73.92
2018-03-25T06:47:45.997Z,73.98
2018-03-25T06:50:13.398Z,73.53
2018-03-25T06:52:40.815Z,73.53
2018-03-25T06:55:08.225Z,72.66
2018-03-25T06:57:35.631Z,72.62
2018-03-25T07:00:03.149Z,72.42
2018-03-25T07:02:30.550Z,72.26
2018-03-25T07:04:57.961Z,71.71
2018-03-25T07:07:25.395Z,71.53
2018-03-25T07:09:52.811Z,70.68
2018-03-25T07:12:20.221Z,70.46
2018-03-25T07:14:47.642Z,69.63
2018-03-25T07:17:15.058Z,68.03
2018-03-25T07:19:42.456Z,68.24
2018-03-25T07:22:09.877Z,68.63
2018-03-25T07:24:37.281Z,67.96
2018-03-25T07:27:04.704Z,67.52
2018-03-25T07:29:32.134Z,67.85
2018-03-25T07:31:59.554Z,67.92
2018-03-25T07:34:26.957Z,67.64
2018-03-25T07:36:54.353Z,67.83
2018-03-25T07:39:21.766Z,68.23
2018-03-25T07:41:49.178Z,68.47
2018-03-25T07:44:16.937Z,68.25
2018-03-25T07:46:44.453Z,67.49
2018-03-25T07:49:11.858Z,67.55
2018-03-25T07:51:39.257Z,67.87
2018-03-25T07:54:06.673Z,65.90
2018-03-25T07:56:34.073Z,66.31
2018-03-25T07:59:01.494Z,66.65
2018-03-25T08:01:28.897Z,66.00
2018-03-25T08:03:56.491Z,64.62
2018-03-25T08:06:23.882Z,64.38
2018-03-25T08:08:51.284Z,64.06
2018-03-25T08:11:18.702Z,63.65
2018-03-25T08:13:46.129Z,63.14
2018-03-25T08:16:13.627Z,63.02
2018-03-25T08:18:40.962Z,62.40
2018-03-25T08:21:08.632Z,62.55
2018-03-25T08:23:36.029Z,61.78
2018-03-25T08:26:03.442Z,61.91
2018-03-25T08:28:31.066Z,61.04
2018-03-25T08:30:58.464Z,60.03
2018-03-25T08:33:25.877Z,60.91
2018-03-25T08:35:53.290Z,60.86
2018-03-25T08:38:20.694Z,60.21
2018-03-25T08:40:48.128Z,58.90
2018-03-25T08:43:15.529Z,59.28
2018-03-25T08:45:42.954Z,58.51
2018-03-25T08:48:10.374Z,57.84
2018-03-25T08:50:37.770Z,56.89
2018-03-25T08:53:05.474Z,54.70
2018-03-25T08:55:32.877Z,55.04
2018-03-25T08:58:00.282Z,55.70
2018-03-25T09:00:27.700Z,54.51
2018-03-25T09:02:55.105Z,54.36
2018-03-25T09:05:22.818Z,54.79
2018-03-25T09:07:50.221Z,53.77
2018-03-25T09:10:17.645Z,53.47
2018-03-25T09:12:45.442Z,54.12
2018-03-25T09:15:12.853Z,53.73
2018-03-25T09:17:40.272Z,53.31
2018-03-25T09:20:07.698Z,54.01
2018-03-25T09:22:35.097Z,53.97
2018-03-25T09:25:02.730Z,53.26
2018-03-25T09:27:30.139Z,52.02
2018-03-25T09:29:57.541Z,52.84
2018-03-25T09:32:24.966Z,51.42
2018-03-25T09:34:52.386Z,51.49
2018-03-25T09:37:19.825Z,51.84
2018-03-25T09:39:47.222Z,49.71
2018-03-25T09:42:14.673Z,50.02
2018-03-25T09:44:42.068Z,50.61
2018-03-25T09:47:09.487Z,49.90
2018-03-25T09:49:36.913Z,49.35
2018-03-25T09:52:04.323Z,50.50
2018-03-25T09:54:31.769Z,50.48
2018-03-25T09:56:59.193Z,50.03
2018-03-25T09:59:26.598Z,49.81
2018-03-25T10:05:02.987Z,49.32
2018-03-25T10:07:30.819Z,50.05
2018-03-25T10:09:58.242Z,49.48
2018-03-25T10:12:25.736Z,48.98
2018-03-25T10:14:53.198Z,48.80
2018-03-25T10:17:20.905Z,49.25
2018-03-25T10:19:48.523Z,47.19
2018-03-25T10:22:15.957Z,47.50
2018-03-25T10:24:43.788Z,46.28
2018-03-25T10:27:11.223Z,45.46
2018-03-25T10:29:38.630Z,46.32
2018-03-25T10:32:06.057Z,45.47
2018-03-25T10:34:33.474Z,45.56
2018-03-25T10:37:01.009Z,44.85
2018-03-25T10:39:28.417Z,44.54
2018-03-25T10:41:55.850Z,44.60
2018-03-25T10:44:23.351Z,45.93
2018-03-25T10:46:50.878Z,45.17
2018-03-25T10:49:18.343Z,45.35
2018-03-25T10:51:45.763Z,45.60
2018-03-25T10:54:13.214Z,44.41
2018-03-25T10:56:40.720Z,44.31
2018-03-25T10:59:08.149Z,44.62
2018-03-25T11:01:35.574Z,44.62
2018-03-25T11:04:02.982Z,43.69
2018-03-25T11:06:30.417Z,44.83
2018-03-25T11:08:57.826Z,45.57
2018-03-25T11:11:25.266Z,43.35
2018-03-25T11:13:52.733Z,44.34
2018-03-25T11:16:20.206Z,44.44
2018-03-25T11:18:47.778Z,42.08
2018-03-25T11:21:15.186Z,41.76
2018-03-25T11:23:42.662Z,43.14
2018-03-25T11:26:10.102Z,42.85
2018-03-25T11:28:37.533Z,40.88
2018-03-25T11:31:04.946Z,40.82
2018-03-25T11:33:32.362Z,41.94
2018-03-25T11:35:59.889Z,41.32
2018-03-25T11:38:27.603Z,42.88
2018-03-25T11:40:55.026Z,41.12
2018-03-25T11:43:22.787Z,40.57
2018-03-25T11:45:50.216Z,42.05
2018-03-25T11:48:17.653Z,42.07
2018-03-25T11:50:45.303Z,40.98
2018-03-25T11:53:12.733Z,40.83
2018-03-25T11:55:40.117Z,41.21
2018-03-25T11:58:07.542Z,41.84
2018-03-25T12:00:34.950Z,41.41
2018-03-25T12:03:02.637Z,42.94
2018-03-25T12:05:30.035Z,42.80
2018-03-25T12:07:57.449Z,41.26
2018-03-25T12:10:24.882Z,40.22
2018-03-25T12:12:52.289Z,39.89
2018-03-25T12:15:19.782Z,39.50
2018-03-25T12:17:48.226Z,40.57
2018-03-25T12:20:15.808Z,41.16
2018-03-25T12:22:43.225Z,41.15
2018-03-25T12:25:10.638Z,39.77
2018-03-25T12:27:38.076Z,41.59
2018-03-25T12:30:05.483Z,41.20
2018-03-25T12:32:32.909Z,40.28
2018-03-25T12:35:00.326Z,41.08
2018-03-25T12:37:28.137Z,40.91
2018-03-25T12:39:55.554Z,40.92
2018-03-25T12:42:22.970Z,38.98
2018-03-25T12:44:50.395Z,40.21
2018-03-25T12:47:17.819Z,40.74
2018-03-25T12:49:45.245Z,41.14
2018-03-25T12:52:12.662Z,40.89
2018-03-25T12:54:40.383Z,41.36
2018-03-25T12:57:07.797Z,40.84
2018-03-25T12:59:35.212Z,40.31
2018-03-25T13:02:02.637Z,39.28
2018-03-25T13:04:30.041Z,39.59
2018-03-25T13:06:57.482Z,40.09
2018-03-25T13:09:24.910Z,40.01
2018-03-25T13:11:52.332Z,40.80
2018-03-25T13:14:19.757Z,40.22
2018-03-25T13:16:47.166Z,39.22
2018-03-25T13:19:14.585Z,39.75
2018-03-25T13:21:42.281Z,40.37
2018-03-25T13:24:09.685Z,40.19
2018-03-25T13:26:37.102Z,40.98
2018-03-25T13:29:04.534Z,39.97
2018-03-25T13:31:31.964Z,40.30
2018-03-25T13:33:59.505Z,40.57
2018-03-25T13:36:26.907Z,40.23
2018-03-25T13:38:54.671Z,40.40
2018-03-25T13:41:22.087Z,41.30
2018-03-25T13:43:49.501Z,41.30
2018-03-25T13:46:17.291Z,40.60
2018-03-25T13:48:44.696Z,39.71
2018-03-25T13:51:12.125Z,40.10
2018-03-25T13:53:39.560Z,40.68
2018-03-25T13:56:06.974Z,40.98
2018-03-25T13:58:34.397Z,40.75
2018-03-25T14:01:01.809Z,39.53
2018-03-25T14:03:29.210Z,39.79
2018-03-25T14:05:56.662Z,39.99
2018-03-25T14:08:24.108Z,39.83
2018-03-25T14:10:51.540Z,40.48
2018-03-25T14:13:18.996Z,40.20
2018-03-25T14:15:46.426Z,40.58
2018-03-25T14:18:13.849Z,40.94
2018-03-25T14:20:41.477Z,41.03
2018-03-25T14:23:08.955Z,40.59
2018-03-25T14:25:36.338Z,40.90
2018-03-25T14:28:03.774Z,40.71
2018-03-25T14:30:31.330Z,40.56
2018-03-25T14:32:58.754Z,41.09
2018-03-25T14:35:26.170Z,42.22
2018-03-25T14:37:53.738Z,42.92
2018-03-25T14:40:21.154Z,42.78
2018-03-25T14:42:48.566Z,42.78
2018-03-25T14:45:15.986Z,42.81
2018-03-25T14:47:43.558Z,43.19
2018-03-25T14:50:10.968Z,42.80
2018-03-25T14:52:38.401Z,43.15
2018-03-25T14:55:05.821Z,44.09
2018-03-25T14:57:34.214Z,44.32
2018-03-25T15:00:01.654Z,44.49
2018-03-25T15:02:29.058Z,44.14
2018-03-25T15:04:56.803Z,44.14
2018-03-25T15:07:24.238Z,44.18
2018-03-25T15:09:51.710Z,44.42
2018-03-25T15:12:19.210Z,44.46
2018-03-25T15:14:46.609Z,44.79
2018-03-25T15:17:14.053Z,44.25
2018-03-25T15:19:41.477Z,44.28
2018-03-25T15:22:08.885Z,44.28
2018-03-25T15:24:36.307Z,44.21
2018-03-25T15:27:03.726Z,44.15
2018-03-25T15:29:31.334Z,43.39
2018-03-25T15:31:58.751Z,43.10
2018-03-25T15:34:26.223Z,43.30
2018-03-25T15:36:53.652Z,43.11
2018-03-25T15:39:21.073Z,43.18
2018-03-25T15:41:48.498Z,43.10
2018-03-25T15:44:15.921Z,43.54
2018-03-25T15:46:43.346Z,43.82
2018-03-25T15:49:10.790Z,43.51
2018-03-25T15:51:38.236Z,43.65
2018-03-25T15:54:05.758Z,43.84
2018-03-25T15:56:33.166Z,43.95
2018-03-25T15:59:00.587Z,43.93
2018-03-25T16:01:28.006Z,44.41
2018-03-25T16:03:55.493Z,44.10
2018-03-25T16:06:22.921Z,44.26
2018-03-25T16:08:50.707Z,43.94
2018-03-25T16:11:18.187Z,44.22
2018-03-25T16:13:45.607Z,44.33
2018-03-25T16:16:13.035Z,44.79
2018-03-25T16:18:40.472Z,44.76
2018-03-25T16:21:07.884Z,45.51
2018-03-25T16:23:35.317Z,45.62
2018-03-25T16:26:02.742Z,45.95
2018-03-25T16:28:30.177Z,46.27
2018-03-25T16:30:57.607Z,46.69
2018-03-25T16:33:25.024Z,46.75
2018-03-25T16:35:52.737Z,46.57
2018-03-25T16:38:20.155Z,46.72
2018-03-25T16:40:47.577Z,46.51
2018-03-25T16:43:15.019Z,46.54
2018-03-25T16:45:42.435Z,45.75
2018-03-25T16:48:09.859Z,45.87
2018-03-25T16:50:37.320Z,46.28
2018-03-25T16:53:04.747Z,45.96
2018-03-25T16:55:32.154Z,46.18
2018-03-25T16:57:59.600Z,46.16
2018-03-25T17:00:27.151Z,46.37
2018-03-25T17:02:54.603Z,45.99
2018-03-25T17:05:22.029Z,46.39
2018-03-25T17:07:49.569Z,46.33
2018-03-25T17:10:17.178Z,46.49
2018-03-25T17:12:44.658Z,46.54
2018-03-25T17:15:12.090Z,46.18
2018-03-25T17:17:39.515Z,46.36
2018-03-25T17:20:06.938Z,46.50
2018-03-25T17:22:34.371Z,46.31
2018-03-25T17:25:02.020Z,46.36
2018-03-25T17:27:29.439Z,46.42
2018-03-25T17:29:56.879Z,46.66
2018-03-25T17:32:24.308Z,46.80
2018-03-25T17:34:51.836Z,46.92
2018-03-25T17:37:19.240Z,46.95
2018-03-25T17:39:46.655Z,47.45
2018-03-25T17:42:14.188Z,47.04
2018-03-25T17:44:41.640Z,47.43
2018-03-25T17:47:09.042Z,47.41
2018-03-25T17:49:36.476Z,47.68
2018-03-25T17:52:03.885Z,47.83
2018-03-25T17:54:31.318Z,48.05
2018-03-25T17:56:58.747Z,48.21
2018-03-25T17:59:26.493Z,48.33
2018-03-25T18:01:53.924Z,49.05
2018-03-25T18:04:21.458Z,48.80
2018-03-25T18:06:48.963Z,49.40
2018-03-25T18:09:16.398Z,49.06
2018-03-25T18:11:43.842Z,48.81
2018-03-25T18:14:11.282Z,49.23
2018-03-25T18:16:38.696Z,49.85
2018-03-25T18:19:06.113Z,50.08
2018-03-25T18:21:33.522Z,49.81
2018-03-25T18:24:00.922Z,50.02
2018-03-25T18:26:28.343Z,50.18
2018-03-25T18:28:55.754Z,50.37
2018-03-25T18:31:23.177Z,50.57
2018-03-25T18:33:50.590Z,51.51
2018-03-25T18:36:18.000Z,51.96
2018-03-25T18:38:45.417Z,51.68
2018-03-25T18:41:12.871Z,51.89
2018-03-25T18:43:40.274Z,52.04
2018-03-25T18:46:07.686Z,52.32
2018-03-25T18:48:35.093Z,52.69
2018-03-25T18:51:02.523Z,52.55
2018-03-25T18:53:29.930Z,52.69
2018-03-25T18:55:57.329Z,52.60
2018-03-25T18:58:24.757Z,52.60
2018-03-25T19:00:52.262Z,52.81
2018-03-25T19:03:19.682Z,52.76
2018-03-25T19:05:47.118Z,52.78
2018-03-25T19:08:14.516Z,53.36
2018-03-25T19:10:41.942Z,53.01
2018-03-25T19:13:09.346Z,53.07
2018-03-25T19:15:36.774Z,53.36
2018-03-25T19:18:04.182Z,53.53
2018-03-25T19:20:31.598Z,53.75
2018-03-25T19:22:59.021Z,54.41
2018-03-25T19:25:26.470Z,54.63
2018-03-25T19:27:53.930Z,54.64
2018-03-25T19:30:21.344Z,54.59
2018-03-25T19:32:48.915Z,54.91
2018-03-25T19:35:16.314Z,54.76
2018-03-25T19:37:43.812Z,54.91
2018-03-25T19:40:11.234Z,55.23
2018-03-25T19:42:38.661Z,55.60
2018-03-25T19:45:06.082Z,55.53
2018-03-25T19:47:33.489Z,55.50
2018-03-25T19:50:00.918Z,56.28
2018-03-25T19:52:28.339Z,56.13
2018-03-25T19:54:55.825Z,56.91
2018-03-25T19:57:23.383Z,56.64
2018-03-25T19:59:50.861Z,56.79
2018-03-25T20:02:18.730Z,57.04
2018-03-25T20:04:46.170Z,56.95
2018-03-25T20:07:13.614Z,56.73
2018-03-25T20:09:41.068Z,56.84
2018-03-25T20:12:08.498Z,57.33
2018-03-25T20:14:35.897Z,57.60
2018-03-25T20:17:03.327Z,57.55
2018-03-25T20:19:30.731Z,57.75
2018-03-25T20:21:58.171Z,58.01
2018-03-25T20:24:25.657Z,58.09
2018-03-25T20:26:53.118Z,58.53
2018-03-25T20:29:20.610Z,58.89
2018-03-25T20:31:48.206Z,59.06
2018-03-25T20:34:15.686Z,58.75
2018-03-25T20:36:43.112Z,58.79
2018-03-25T20:39:10.530Z,59.28
2018-03-25T20:41:37.941Z,59.35
2018-03-25T20:44:05.345Z,59.37
2018-03-25T20:46:32.772Z,59.52
2018-03-25T20:49:00.262Z,59.76
2018-03-25T20:51:27.667Z,60.72
2018-03-25T20:53:55.103Z,60.31
2018-03-25T20:56:22.536Z,60.36
2018-03-25T20:58:50.017Z,60.45
2018-03-25T21:01:17.560Z,60.49
2018-03-25T21:03:44.970Z,60.29
2018-03-25T21:06:12.389Z,60.19
2018-03-25T21:08:39.797Z,60.47
2018-03-25T21:11:07.205Z,60.79
2018-03-25T21:13:34.946Z,60.65
2018-03-25T21:16:02.351Z,60.38
2018-03-25T21:18:29.816Z,60.53
2018-03-25T21:20:57.268Z,60.25
2018-03-25T21:23:24.776Z,60.73
2018-03-25T21:25:52.258Z,60.49
2018-03-25T21:28:19.742Z,60.44
2018-03-25T21:30:47.694Z,60.69
2018-03-25T21:33:15.195Z,60.52
2018-03-25T21:35:42.684Z,60.41
2018-03-25T21:38:10.078Z,60.54
2018-03-25T21:40:37.520Z,60.78
2018-03-25T21:43:05.166Z,61.13
2018-03-25T21:45:32.680Z,61.38
2018-03-25T21:48:00.093Z,61.77
2018-03-25T21:50:27.518Z,61.64
2018-03-25T21:52:54.981Z,61.24
2018-03-25T21:55:22.438Z,61.24
2018-03-25T21:57:49.919Z,61.29
2018-03-25T22:00:17.388Z,61.50
2018-03-25T22:02:44.810Z,61.06
2018-03-25T22:05:12.245Z,61.09
2018-03-25T22:07:39.702Z,61.32
2018-03-25T22:10:07.142Z,61.14
2018-03-25T22:12:34.857Z,61.37
2018-03-25T22:15:02.257Z,61.15
2018-03-25T22:17:29.689Z,61.16
2018-03-25T22:19:57.197Z,61.37
2018-03-25T22:22:24.662Z,61.24
2018-03-25T22:24:52.112Z,61.03
2018-03-25T22:27:19.554Z,61.35
2018-03-25T22:29:47.504Z,61.37
2018-03-25T22:32:14.994Z,61.34
2018-03-25T22:34:42.402Z,61.22
2018-03-25T22:37:09.829Z,61.03
2018-03-25T22:39:37.238Z,60.80
2018-03-25T22:42:04.683Z,60.78
2018-03-25T22:44:32.091Z,60.92
2018-03-25T22:46:59.510Z,61.03
2018-03-25T22:49:26.917Z,61.18
2018-03-25T22:51:54.329Z,61.13
2018-03-25T22:54:21.762Z,61.01
2018-03-25T22:56:49.318Z,60.82
2018-03-25T22:59:16.814Z,60.84
2018-03-25T23:01:44.250Z,60.74
2018-03-25T23:04:11.776Z,60.64
2018-03-25T23:06:39.183Z,60.75
2018-03-25T23:09:06.602Z,60.62
2018-03-25T23:11:34.021Z,60.93
2018-03-25T23:14:01.430Z,60.98
2018-03-25T23:16:28.964Z,60.90
2018-03-25T23:18:56.372Z,60.86
2018-03-25T23:21:23.789Z,60.98
2018-03-25T23:23:51.247Z,61.07
2018-03-25T23:26:18.921Z,60.68
2018-03-25T23:28:46.371Z,60.21
2018-03-25T23:31:13.988Z,60.03
2018-03-25T23:33:41.431Z,60.06
2018-03-25T23:36:08.863Z,59.92
2018-03-25T23:38:36.300Z,60.49
2018-03-25T23:41:03.717Z,60.76
2018-03-25T23:43:31.126Z,60.78
2018-03-25T23:45:58.556Z,61.08
2018-03-25T23:48:25.994Z,61.04
2018-03-25T23:50:53.427Z,60.95
2018-03-25T23:53:20.941Z,60.77
2018-03-25T23:55:48.362Z,60.74
2018-03-25T23:58:15.773Z,60.67
